Time;durP1;ratioP1;P1;durP2;ratioP2;P2;SDS_P1;SDS_P2;PMS_P1;PMS_P2;Temp;Humidity;BMP_temperature;BMP_pressure;BME280_temperature;BME280_humidity;BME280_pressure;Samples;Min_cycle;Max_cycle;Signal;HPM_P1;HPM_P2
2023/01/18 00:02:32;;;;;;;2.45;1.70;;;22.60;77.80;;;;;;6213669;28;87238;-72
2023/01/18 00:05:38;;;;;;;2.50;1.75;;;22.50;77.70;;;;;;6227402;28;90062;-73
2023/01/18 00:08:41;;;;;;;2.83;1.80;;;22.50;77.80;;;;;;6231349;28;89160;-73
2023/01/18 00:11:44;;;;;;;2.05;1.73;;;22.50;77.80;;;;;;6229631;28;90370;-72
2023/01/18 00:14:46;;;;;;;3.25;1.83;;;22.50;77.70;;;;;;6221231;28;89183;-73
2023/01/18 00:17:50;;;;;;;2.50;2.00;;;22.50;77.80;;;;;;6208110;28;89295;-72
2023/01/18 00:20:52;;;;;;;2.70;2.08;;;22.50;77.80;;;;;;6208334;28;89021;-72
2023/01/18 00:23:55;;;;;;;2.78;2.25;;;22.50;77.80;;;;;;6227751;28;89357;-72
2023/01/18 00:26:59;;;;;;;2.47;2.15;;;22.40;77.70;;;;;;6230245;28;88996;-72
2023/01/18 00:30:01;;;;;;;2.92;2.50;;;22.40;77.70;;;;;;6230910;28;87999;-72
2023/01/18 00:33:03;;;;;;;3.22;2.70;;;22.50;77.90;;;;;;6208535;28;88284;-72
2023/01/18 00:36:05;;;;;;;3.60;2.50;;;22.40;77.70;;;;;;6207537;28;88964;-72
2023/01/18 00:39:08;;;;;;;2.80;2.50;;;22.40;77.70;;;;;;6217260;28;89496;-73
2023/01/18 00:45:31;;;;;;;3.28;2.78;;;22.40;77.70;;;;;;6229435;28;87609;-72
2023/01/18 00:48:33;;;;;;;4.13;2.75;;;22.30;77.70;;;;;;6210782;28;89112;-73
2023/01/18 00:51:35;;;;;;;4.55;2.60;;;22.30;77.40;;;;;;6226801;28;89361;-73
2023/01/18 00:54:37;;;;;;;2.97;2.65;;;22.30;76.50;;;;;;6221122;28;88537;-73
2023/01/18 00:57:41;;;;;;;5.25;3.10;;;22.30;76.00;;;;;;6211305;28;87980;-74
2023/01/18 01:00:43;;;;;;;3.80;3.05;;;22.30;75.30;;;;;;6216298;28;89071;-74
2023/01/18 01:07:07;;;;;;;4.50;3.30;;;22.30;76.30;;;;;;6195587;28;87554;-73
2023/01/18 01:10:10;;;;;;;3.97;3.47;;;22.30;76.60;;;;;;6220149;28;88016;-73
2023/01/18 01:26:34;;;;;;;5.07;3.40;;;22.20;76.90;;;;;;6222427;28;88449;-73
2023/01/18 01:29:38;;;;;;;4.53;3.80;;;22.20;77.00;;;;;;6229866;28;89741;-73
2023/01/18 01:32:41;;;;;;;5.35;4.00;;;22.20;77.00;;;;;;6228244;28;88740;-73
2023/01/18 01:35:43;;;;;;;4.80;3.80;;;22.20;77.10;;;;;;6230916;28;87177;-73
2023/01/18 01:38:45;;;;;;;4.43;3.92;;;22.20;77.90;;;;;;6230573;28;87968;-73
2023/01/18 01:41:47;;;;;;;4.55;4.15;;;22.20;77.10;;;;;;6230532;28;89390;-72
2023/01/18 01:44:51;;;;;;;4.45;3.88;;;22.10;77.10;;;;;;6226475;28;89550;-73
2023/01/18 01:47:54;;;;;;;4.50;4.10;;;22.10;77.00;;;;;;6226002;28;89083;-72
2023/01/18 01:50:57;;;;;;;5.35;4.30;;;22.20;77.10;;;;;;6219072;28;88944;-70
2023/01/18 01:54:02;;;;;;;5.53;4.20;;;22.10;77.00;;;;;;6227338;28;89182;-72
2023/01/18 01:57:09;;;;;;;4.80;4.30;;;22.10;77.10;;;;;;6228444;28;88957;-73
2023/01/18 02:00:17;;;;;;;5.72;4.47;;;22.10;77.10;;;;;;6229511;28;89407;-73
2023/01/18 02:03:20;;;;;;;5.63;4.45;;;22.10;77.00;;;;;;6227649;28;89418;-73
2023/01/18 02:06:30;;;;;;;4.90;4.40;;;22.10;77.10;;;;;;6217772;28;88613;-72
2023/01/18 02:09:32;;;;;;;4.32;3.92;;;22.10;77.10;;;;;;6214171;28;88268;-74
2023/01/18 02:12:35;;;;;;;4.72;4.32;;;22.10;77.00;;;;;;6230882;28;89095;-73
2023/01/18 02:15:48;;;;;;;4.82;4.38;;;22.00;77.00;;;;;;6221283;28;89969;-72
2023/01/18 02:19:00;;;;;;;5.05;4.55;;;22.00;76.90;;;;;;6224176;28;89367;-73
2023/01/18 02:22:09;;;;;;;5.35;4.78;;;22.00;76.90;;;;;;6222104;28;89254;-72
2023/01/18 02:25:40;;;;;;;5.00;4.50;;;22.00;77.00;;;;;;6225878;28;89128;-74
2023/01/18 02:28:49;;;;;;;4.80;4.30;;;22.00;77.10;;;;;;6207057;28;89151;-71
2023/01/18 02:32:12;;;;;;;5.03;4.22;;;22.00;78.00;;;;;;6215584;28;89006;-73
2023/01/18 02:35:20;;;;;;;4.63;4.20;;;22.00;77.10;;;;;;6232054;28;89061;-72
2023/01/18 02:38:25;;;;;;;4.43;4.03;;;22.00;77.10;;;;;;6233420;28;88296;-73
2023/01/18 02:48:11;;;;;;;5.50;4.90;;;22.00;77.10;;;;;;6222308;28;88242;-73
2023/01/18 02:51:13;;;;;;;5.18;4.68;;;22.00;77.10;;;;;;6222158;28;89399;-72
2023/01/18 02:54:23;;;;;;;5.22;4.43;;;21.90;77.10;;;;;;6235217;28;89088;-72
2023/01/18 02:57:25;;;;;;;4.80;4.40;;;21.90;77.10;;;;;;6223238;28;89086;-73
2023/01/18 03:00:33;;;;;;;4.57;4.18;;;21.90;77.10;;;;;;6232920;28;87944;-73
2023/01/18 03:03:35;;;;;;;4.72;4.25;;;21.90;77.10;;;;;;6233428;28;89155;-72
2023/01/18 03:06:40;;;;;;;4.70;4.25;;;21.90;77.10;;;;;;6232328;28;89183;-73
2023/01/18 03:09:44;;;;;;;5.15;4.65;;;21.90;77.10;;;;;;6230770;28;88378;-73
2023/01/18 03:12:54;;;;;;;4.72;4.20;;;21.90;77.10;;;;;;6229547;28;89086;-73
2023/01/18 03:16:08;;;;;;;5.40;4.90;;;21.90;77.10;;;;;;6221824;28;89082;-73
2023/01/18 03:25:56;;;;;;;4.57;4.18;;;21.90;77.10;;;;;;6188501;28;87642;-73
2023/01/18 03:35:41;;;;;;;4.70;4.20;;;21.90;77.10;;;;;;6230363;28;88276;-73
2023/01/18 03:38:46;;;;;;;4.68;4.18;;;21.80;77.10;;;;;;6212215;28;89152;-73
2023/01/18 03:41:52;;;;;;;4.63;4.20;;;21.80;77.10;;;;;;6233937;28;88644;-74
2023/01/18 03:44:58;;;;;;;5.07;4.38;;;21.80;77.10;;;;;;6233310;28;89064;-73
2023/01/18 03:48:02;;;;;;;5.03;4.32;;;21.80;77.10;;;;;;6232751;28;89021;-73
2023/01/18 03:51:13;;;;;;;5.05;4.55;;;21.80;77.10;;;;;;6217885;28;89969;-73
2023/01/18 03:54:20;;;;;;;5.00;4.50;;;21.80;77.10;;;;;;6227980;28;89259;-72
2023/01/18 03:57:28;;;;;;;4.15;3.75;;;21.80;77.10;;;;;;6229698;28;89039;-72
2023/01/18 04:00:31;;;;;;;5.55;4.43;;;21.80;77.10;;;;;;6221981;28;89244;-73
2023/01/18 04:03:36;;;;;;;4.70;4.30;;;21.80;77.10;;;;;;6232159;28;90461;-72
2023/01/18 04:06:38;;;;;;;4.35;3.95;;;21.80;77.10;;;;;;6221935;28;88988;-72
2023/01/18 04:09:40;;;;;;;4.40;4.00;;;21.80;77.10;;;;;;6213646;28;89079;-72
2023/01/18 04:12:42;;;;;;;4.28;3.88;;;21.70;77.10;;;;;;6217091;28;88642;-73
2023/01/18 04:15:44;;;;;;;4.78;4.10;;;21.80;77.20;;;;;;6220947;28;89070;-72
2023/01/18 04:18:47;;;;;;;4.38;3.97;;;21.70;77.10;;;;;;6220416;28;88715;-73
2023/01/18 04:21:49;;;;;;;4.25;3.85;;;21.70;77.10;;;;;;6218054;28;90098;-73
2023/01/18 04:24:51;;;;;;;4.25;3.85;;;21.70;77.10;;;;;;6223355;28;89540;-73
2023/01/18 04:27:53;;;;;;;3.67;3.38;;;21.70;77.10;;;;;;6214833;28;89133;-72
2023/01/18 04:30:56;;;;;;;4.00;3.60;;;21.70;77.00;;;;;;6231303;28;89055;-73
2023/01/18 04:34:00;;;;;;;4.72;4.20;;;21.70;76.90;;;;;;6215615;28;89069;-73
2023/01/18 04:37:02;;;;;;;3.67;3.35;;;21.80;76.90;;;;;;6219121;28;88968;-72
2023/01/18 04:40:05;;;;;;;3.83;3.53;;;21.80;76.90;;;;;;6231789;28;89067;-73
2023/01/18 04:43:07;;;;;;;4.20;3.80;;;21.80;76.90;;;;;;6221090;28;88584;-73
2023/01/18 04:46:09;;;;;;;3.95;3.55;;;21.80;76.70;;;;;;6216040;28;88259;-72
2023/01/18 04:49:16;;;;;;;4.15;3.75;;;21.80;76.70;;;;;;6231321;28;87985;-72
2023/01/18 04:52:18;;;;;;;3.90;3.50;;;21.80;76.60;;;;;;6226162;28;90028;-72
2023/01/18 04:55:20;;;;;;;4.40;3.60;;;21.80;76.50;;;;;;6214632;28;89097;-73
2023/01/18 04:58:22;;;;;;;4.00;3.60;;;21.80;76.50;;;;;;6209306;28;89476;-74
2023/01/18 05:01:24;;;;;;;3.83;3.50;;;21.80;76.40;;;;;;6230140;28;88069;-72
2023/01/18 05:04:29;;;;;;;4.15;3.75;;;21.80;76.40;;;;;;6218670;28;89106;-73
2023/01/18 05:07:32;;;;;;;3.55;3.25;;;21.90;76.50;;;;;;6218875;28;88761;-72
2023/01/18 05:10:34;;;;;;;3.88;3.47;;;21.90;76.40;;;;;;6220284;28;89590;-73
2023/01/18 05:13:37;;;;;;;3.75;3.45;;;21.90;76.40;;;;;;6225837;28;87278;-73
2023/01/18 05:16:39;;;;;;;3.72;3.10;;;21.90;76.40;;;;;;6231407;28;88964;-74
2023/01/18 05:19:42;;;;;;;3.40;3.10;;;22.00;76.40;;;;;;6229936;28;89408;-73
2023/01/18 05:22:44;;;;;;;4.00;3.67;;;22.00;76.40;;;;;;6214385;28;90343;-73
2023/01/18 05:25:51;;;;;;;3.70;3.40;;;22.00;76.20;;;;;;6223317;28;88209;-73
2023/01/18 05:28:57;;;;;;;3.58;3.28;;;22.00;76.20;;;;;;6229483;28;89060;-72
2023/01/18 05:31:59;;;;;;;3.78;3.47;;;22.00;76.20;;;;;;6217061;28;89144;-72
2023/01/18 05:35:02;;;;;;;3.30;3.00;;;22.00;76.20;;;;;;6219023;28;89221;-73
2023/01/18 05:38:04;;;;;;;3.40;3.10;;;22.00;76.10;;;;;;6230058;28;89573;-73
2023/01/18 05:41:06;;;;;;;3.30;3.00;;;22.10;76.20;;;;;;6229817;28;89069;-73
2023/01/18 05:44:09;;;;;;;3.22;2.92;;;22.10;76.20;;;;;;6225238;28;88589;-73
2023/01/18 05:47:12;;;;;;;3.33;3.03;;;22.10;77.10;;;;;;6222707;28;89217;-73
2023/01/18 05:50:15;;;;;;;3.75;3.40;;;22.10;76.10;;;;;;6214609;28;88992;-73
2023/01/18 05:53:19;;;;;;;3.25;2.90;;;22.10;76.10;;;;;;6224136;28;89918;-74
2023/01/18 05:56:21;;;;;;;3.40;3.10;;;22.10;76.00;;;;;;6217338;28;89527;-73
2023/01/18 05:59:23;;;;;;;3.40;3.10;;;22.20;76.10;;;;;;6223629;28;89354;-73
2023/01/18 06:02:25;;;;;;;3.25;2.95;;;22.10;76.00;;;;;;6230320;28;89100;-72
2023/01/18 06:05:29;;;;;;;3.47;3.00;;;22.20;76.00;;;;;;6215426;28;89301;-72
2023/01/18 06:08:31;;;;;;;5.60;3.20;;;22.20;76.90;;;;;;6233658;28;89356;-73
2023/01/18 06:11:33;;;;;;;3.33;2.80;;;22.20;76.10;;;;;;6230369;28;87789;-73
2023/01/18 06:14:35;;;;;;;3.38;2.50;;;22.20;76.10;;;;;;6225243;28;88714;-72
2023/01/18 06:17:38;;;;;;;3.83;3.42;;;22.20;76.10;;;;;;6220953;28;89351;-72
2023/01/18 06:20:41;;;;;;;3.33;3.03;;;22.20;76.20;;;;;;6229806;28;89106;-72
2023/01/18 06:23:43;;;;;;;4.78;2.97;;;22.20;76.10;;;;;;6229712;28;89977;-72
2023/01/18 06:26:45;;;;;;;3.60;2.92;;;22.20;76.20;;;;;;6217016;28;90469;-72
2023/01/18 06:29:48;;;;;;;5.18;3.03;;;22.20;76.10;;;;;;6220412;28;88074;-72
2023/01/18 06:32:50;;;;;;;2.80;2.60;;;22.20;76.10;;;;;;6225045;28;89024;-73
2023/01/18 06:35:54;;;;;;;3.90;2.90;;;22.20;76.10;;;;;;6226030;28;89476;-72
2023/01/18 06:38:56;;;;;;;3.00;2.70;;;22.30;76.10;;;;;;6228088;28;89064;-72
2023/01/18 06:41:58;;;;;;;4.03;3.03;;;22.30;76.20;;;;;;6216813;28;89200;-71
2023/01/18 06:45:00;;;;;;;2.95;2.63;;;22.30;76.20;;;;;;6230990;28;88391;-72
2023/01/18 06:48:03;;;;;;;3.10;2.70;;;22.30;76.10;;;;;;6229412;28;89115;-73
2023/01/18 06:51:06;;;;;;;2.90;2.60;;;22.30;76.10;;;;;;6220256;28;89070;-72
2023/01/18 06:54:09;;;;;;;3.25;2.78;;;22.30;76.10;;;;;;6221032;28;89825;-73
2023/01/18 06:57:11;;;;;;;3.08;2.70;;;22.30;76.10;;;;;;6215712;28;89212;-71
2023/01/18 07:00:16;;;;;;;2.78;2.53;;;22.30;76.10;;;;;;6228646;28;88977;-73
2023/01/18 07:03:18;;;;;;;2.90;2.55;;;22.30;76.10;;;;;;6220389;28;89151;-72
2023/01/18 07:06:22;;;;;;;3.03;2.80;;;22.30;76.10;;;;;;6224128;28;89198;-71
2023/01/18 07:09:24;;;;;;;3.58;2.63;;;22.30;76.10;;;;;;6215447;28;89045;-72
2023/01/18 07:12:26;;;;;;;3.03;2.58;;;22.30;76.00;;;;;;6219262;28;89047;-72
2023/01/18 07:15:28;;;;;;;3.10;2.72;;;22.30;76.10;;;;;;6219862;28;87394;-70
2023/01/18 07:18:30;;;;;;;3.00;2.70;;;22.30;76.90;;;;;;6233159;28;89041;-71
2023/01/18 07:21:34;;;;;;;2.75;2.40;;;22.30;76.00;;;;;;6234261;28;90006;-72
2023/01/18 07:24:36;;;;;;;2.42;2.22;;;22.30;76.00;;;;;;6220006;28;90144;-72
2023/01/18 07:27:39;;;;;;;3.30;2.30;;;22.40;76.00;;;;;;6233035;28;89138;-70
2023/01/18 07:30:41;;;;;;;3.65;2.55;;;22.30;75.90;;;;;;6231997;28;88488;-73
2023/01/18 07:33:43;;;;;;;3.50;2.80;;;22.30;75.90;;;;;;6218618;28;89170;-72
2023/01/18 07:36:46;;;;;;;2.60;2.40;;;22.40;76.00;;;;;;6231210;28;89053;-72
2023/01/18 07:39:50;;;;;;;3.25;2.42;;;22.30;75.90;;;;;;6233201;28;89070;-72
2023/01/18 07:42:57;;;;;;;2.20;2.00;;;22.40;75.90;;;;;;6232105;28;89327;-72
2023/01/18 07:46:00;;;;;;;2.58;2.38;;;22.40;75.90;;;;;;6220102;28;88385;-72
2023/01/18 07:49:04;;;;;;;2.60;2.40;;;22.40;75.90;;;;;;6215426;28;88001;-72
2023/01/18 07:52:08;;;;;;;2.50;2.28;;;22.40;75.90;;;;;;6220356;28;89282;-73
2023/01/18 07:55:10;;;;;;;3.15;2.40;;;22.40;75.90;;;;;;6229999;28;90110;-73
2023/01/18 07:58:12;;;;;;;2.67;2.33;;;22.40;75.90;;;;;;6222022;28;89087;-72
2023/01/18 08:01:16;;;;;;;2.80;2.60;;;22.40;75.90;;;;;;6228688;28;89497;-71
2023/01/18 08:04:18;;;;;;;2.80;2.10;;;22.40;75.80;;;;;;6208997;28;88288;-72
2023/01/18 08:07:22;;;;;;;2.45;2.10;;;22.40;75.80;;;;;;6222146;28;89033;-72
2023/01/18 08:10:26;;;;;;;2.30;2.10;;;22.40;76.70;;;;;;6226609;28;89063;-72
2023/01/18 08:13:28;;;;;;;2.60;2.25;;;22.40;75.80;;;;;;6218308;28;89196;-72
2023/01/18 08:16:30;;;;;;;2.25;2.05;;;22.50;75.80;;;;;;6232728;28;88504;-72
2023/01/18 08:19:32;;;;;;;3.38;2.25;;;22.50;75.90;;;;;;6228109;28;87903;-73
2023/01/18 08:22:36;;;;;;;2.15;1.95;;;22.50;75.90;;;;;;6210882;28;89295;-72
2023/01/18 08:25:38;;;;;;;2.40;2.20;;;22.40;75.70;;;;;;6221184;28;89881;-74
2023/01/18 08:28:41;;;;;;;2.15;1.95;;;22.50;75.80;;;;;;6228016;28;89086;-73
2023/01/18 08:31:43;;;;;;;2.60;2.30;;;22.40;75.70;;;;;;6220847;28;89086;-73
2023/01/18 08:34:45;;;;;;;2.50;2.30;;;22.50;75.80;;;;;;6221334;28;89404;-72
2023/01/18 08:37:48;;;;;;;2.22;2.03;;;22.50;75.70;;;;;;6229578;28;89127;-72
2023/01/18 08:40:50;;;;;;;2.42;2.20;;;22.50;75.70;;;;;;6231514;28;89037;-73
2023/01/18 08:43:52;;;;;;;2.63;2.38;;;22.50;75.80;;;;;;6232044;28;89052;-72
2023/01/18 08:46:55;;;;;;;2.38;2.17;;;22.50;75.70;;;;;;6219164;28;87247;-72
2023/01/18 08:49:57;;;;;;;2.72;2.05;;;22.50;75.70;;;;;;6218783;28;89380;-73
2023/01/18 08:53:01;;;;;;;2.33;2.13;;;22.50;75.70;;;;;;6222320;28;89071;-73
2023/01/18 08:56:05;;;;;;;2.60;2.00;;;22.50;75.70;;;;;;6223500;28;90123;-72
2023/01/18 08:59:09;;;;;;;2.80;2.10;;;22.50;75.70;;;;;;6232541;28;88639;-73
2023/01/18 09:02:11;;;;;;;2.30;2.08;;;22.50;75.70;;;;;;6231159;28;89045;-72
2023/01/18 09:05:13;;;;;;;2.40;1.88;;;22.50;75.70;;;;;;6231286;28;89313;-72
2023/01/18 09:08:17;;;;;;;2.20;2.00;;;22.50;75.70;;;;;;6230860;28;87999;-71
2023/01/18 09:11:19;;;;;;;2.20;2.00;;;22.50;75.70;;;;;;6229618;28;89093;-72
2023/01/18 09:14:21;;;;;;;2.40;2.10;;;22.50;75.70;;;;;;6224663;28;89102;-73
2023/01/18 09:17:23;;;;;;;2.40;2.10;;;22.50;75.70;;;;;;6223745;28;88324;-72
2023/01/18 09:20:26;;;;;;;2.50;1.88;;;22.50;75.70;;;;;;6231580;28;89118;-73
2023/01/18 09:23:29;;;;;;;2.45;1.80;;;22.50;75.70;;;;;;6219893;28;89134;-72
2023/01/18 09:26:32;;;;;;;2.17;1.95;;;22.50;75.70;;;;;;6219524;28;90035;-73
2023/01/18 09:29:34;;;;;;;2.20;2.00;;;22.50;75.70;;;;;;6213980;28;87902;-72
2023/01/18 09:32:36;;;;;;;2.22;1.92;;;22.50;75.70;;;;;;6230692;28;89159;-73
2023/01/18 09:35:38;;;;;;;2.42;2.22;;;22.60;75.70;;;;;;6230562;28;89072;-73
2023/01/18 09:38:44;;;;;;;2.10;1.90;;;22.50;75.60;;;;;;6229612;28;89167;-73
2023/01/18 09:41:52;;;;;;;2.13;1.90;;;22.50;75.60;;;;;;6219396;28;89247;-72
2023/01/18 09:44:58;;;;;;;2.47;1.92;;;22.50;75.60;;;;;;6218803;28;89301;-73
2023/01/18 09:48:05;;;;;;;2.67;1.88;;;22.60;75.70;;;;;;6230637;28;88330;-72
2023/01/18 09:51:14;;;;;;;1.75;1.65;;;22.60;75.70;;;;;;6230829;28;88994;-73
2023/01/18 09:54:29;;;;;;;1.98;1.77;;;22.60;75.60;;;;;;6230429;28;89516;-72
2023/01/18 09:57:43;;;;;;;2.13;1.77;;;22.60;75.60;;;;;;6218140;28;90053;-73
2023/01/18 10:00:47;;;;;;;2.30;2.10;;;22.60;75.70;;;;;;6223142;28;88953;-73
2023/01/18 10:03:55;;;;;;;2.08;1.80;;;22.60;75.70;;;;;;6218558;28;89165;-72
2023/01/18 10:07:00;;;;;;;2.00;1.80;;;22.60;75.60;;;;;;6217394;28;89058;-72
2023/01/18 10:10:05;;;;;;;1.70;1.60;;;22.60;75.60;;;;;;6229764;28;88977;-73
2023/01/18 10:13:34;;;;;;;2.10;1.90;;;22.60;75.60;;;;;;6229186;28;89030;-73
2023/01/18 10:16:37;;;;;;;1.88;1.67;;;22.60;75.60;;;;;;6211149;28;89992;-73
2023/01/18 10:19:40;;;;;;;1.98;1.77;;;22.60;75.60;;;;;;6219606;28;88459;-74
2023/01/18 10:22:48;;;;;;;1.98;1.75;;;22.60;75.50;;;;;;6206002;28;89135;-73
2023/01/18 10:25:54;;;;;;;1.67;1.58;;;22.60;75.50;;;;;;6220466;28;87938;-73
2023/01/18 10:29:03;;;;;;;1.80;1.70;;;22.60;75.50;;;;;;6228089;28;90073;-72
2023/01/18 10:32:11;;;;;;;1.90;1.80;;;22.60;75.50;;;;;;6218935;28;89116;-74
2023/01/18 10:35:22;;;;;;;1.90;1.60;;;22.60;75.50;;;;;;6229693;28;88962;-73
2023/01/18 10:38:28;;;;;;;1.85;1.70;;;22.60;75.50;;;;;;6217926;28;89073;-73
2023/01/18 10:41:39;;;;;;;2.08;1.80;;;22.60;75.50;;;;;;6216059;28;89020;-73
2023/01/18 10:44:41;;;;;;;2.13;1.70;;;22.60;75.50;;;;;;6228970;28;89060;-73
2023/01/18 10:47:44;;;;;;;1.92;1.70;;;22.60;75.50;;;;;;6220839;28;88956;-72
2023/01/18 10:50:48;;;;;;;2.45;2.05;;;22.60;75.50;;;;;;6214227;28;88361;-73
2023/01/18 10:53:50;;;;;;;1.75;1.42;;;22.70;75.50;;;;;;6231488;28;88958;-72
2023/01/18 10:57:03;;;;;;;2.00;1.80;;;22.70;75.50;;;;;;6222793;28;89066;-72
2023/01/18 11:00:20;;;;;;;1.50;1.40;;;22.70;75.50;;;;;;6217502;28;89102;-73
2023/01/18 11:03:25;;;;;;;2.03;1.70;;;22.70;75.50;;;;;;6233405;28;90183;-73
2023/01/18 11:06:28;;;;;;;1.95;1.73;;;22.70;75.50;;;;;;6233945;28;87979;-72
2023/01/18 11:09:41;;;;;;;1.92;1.73;;;22.70;75.50;;;;;;6214452;28;89040;-73
2023/01/18 11:12:47;;;;;;;1.70;1.40;;;22.70;75.70;;;;;;6227256;28;88069;-73
2023/01/18 11:16:02;;;;;;;2.03;1.85;;;22.70;75.60;;;;;;6217618;28;88376;-72
2023/01/18 11:19:15;;;;;;;1.77;1.67;;;22.70;75.70;;;;;;6232300;28;89004;-74
2023/01/18 11:22:17;;;;;;;1.80;1.63;;;22.70;75.60;;;;;;6223208;28;88274;-72
2023/01/18 11:25:20;;;;;;;1.85;1.70;;;22.70;75.60;;;;;;6221900;28;89491;-73
2023/01/18 11:28:27;;;;;;;1.85;1.63;;;22.70;75.70;;;;;;6222242;28;87994;-72
2023/01/18 11:31:32;;;;;;;1.65;1.40;;;22.70;75.70;;;;;;6229433;28;90131;-73
2023/01/18 11:34:35;;;;;;;1.70;1.58;;;22.70;75.70;;;;;;6231845;28;89114;-73
2023/01/18 11:37:41;;;;;;;2.13;1.60;;;22.70;75.70;;;;;;6221752;28;88995;-73
2023/01/18 11:40:43;;;;;;;1.70;1.60;;;22.70;75.70;;;;;;6218862;28;89483;-73
2023/01/18 11:43:59;;;;;;;1.73;1.58;;;22.70;75.70;;;;;;6218883;28;89220;-72
2023/01/18 11:47:05;;;;;;;1.88;1.45;;;22.70;75.70;;;;;;6229875;28;88987;-72
2023/01/18 11:50:18;;;;;;;2.05;1.85;;;22.70;75.70;;;;;;6220686;28;88174;-73
2023/01/18 11:53:30;;;;;;;1.70;1.60;;;22.60;75.70;;;;;;6225913;28;88672;-71
2023/01/18 11:56:38;;;;;;;1.73;1.60;;;22.70;75.80;;;;;;6209830;28;89599;-73
2023/01/18 11:59:45;;;;;;;1.52;1.42;;;22.70;75.90;;;;;;6232029;28;89340;-73
2023/01/18 12:02:58;;;;;;;1.73;1.60;;;22.60;75.90;;;;;;6219651;28;90755;-72
2023/01/18 12:06:06;;;;;;;1.65;1.35;;;22.60;75.90;;;;;;6220717;28;89103;-72
2023/01/18 12:09:20;;;;;;;1.60;1.50;;;22.60;75.90;;;;;;6228403;28;89070;-73
2023/01/18 12:12:40;;;;;;;1.50;1.40;;;22.60;75.90;;;;;;6221788;28;88926;-73
2023/01/18 12:15:56;;;;;;;2.22;1.40;;;22.60;75.90;;;;;;6228884;28;87849;-72
2023/01/18 12:19:24;;;;;;;1.58;1.48;;;22.60;76.00;;;;;;6229450;28;89253;-73
2023/01/18 12:22:45;;;;;;;1.77;1.38;;;22.60;76.00;;;;;;6209764;28;89137;-72
2023/01/18 12:26:01;;;;;;;1.48;1.38;;;22.60;76.00;;;;;;6231862;28;88515;-73
2023/01/18 12:29:19;;;;;;;1.60;1.50;;;22.60;76.10;;;;;;6229017;28;89109;-72
2023/01/18 12:32:32;;;;;;;1.55;1.40;;;22.60;76.00;;;;;;6208201;28;88034;-73
2023/01/18 12:36:05;;;;;;;2.20;1.50;;;22.60;76.00;;;;;;6220966;28;90133;-72
2023/01/18 12:39:21;;;;;;;1.30;1.20;;;22.60;76.10;;;;;;6232195;28;89394;-72
2023/01/18 12:42:37;;;;;;;1.58;1.48;;;22.60;76.10;;;;;;6232346;28;89267;-73
2023/01/18 12:45:41;;;;;;;1.67;1.38;;;22.60;76.00;;;;;;6214087;28;89045;-72
2023/01/18 12:48:49;;;;;;;1.50;1.40;;;22.60;76.00;;;;;;6207099;28;89192;-73
2023/01/18 12:51:57;;;;;;;1.60;1.50;;;22.60;76.00;;;;;;6220815;28;89553;-73
2023/01/18 12:55:04;;;;;;;1.50;1.40;;;22.60;76.90;;;;;;6218659;28;89410;-72
2023/01/18 12:58:08;;;;;;;1.35;1.25;;;22.60;76.00;;;;;;6229713;28;88266;-73
2023/01/18 13:01:14;;;;;;;1.40;1.30;;;22.60;75.90;;;;;;6223040;28;87966;-72
2023/01/18 13:04:23;;;;;;;1.60;1.50;;;22.60;75.90;;;;;;6222860;28;89137;-72
2023/01/18 13:07:32;;;;;;;1.80;1.52;;;22.60;75.90;;;;;;6218006;28;90077;-72
2023/01/18 13:10:35;;;;;;;1.80;1.52;;;22.70;75.90;;;;;;6217724;28;88254;-72
2023/01/18 13:13:40;;;;;;;1.30;1.20;;;22.60;75.90;;;;;;6231524;28;89089;-72
2023/01/18 13:16:46;;;;;;;1.33;1.20;;;22.60;75.80;;;;;;6220353;28;88034;-71
2023/01/18 13:19:57;;;;;;;1.40;1.30;;;22.60;75.90;;;;;;6217378;28;89127;-73
2023/01/18 13:23:06;;;;;;;1.20;1.10;;;22.70;75.90;;;;;;6211523;28;88119;-72
2023/01/18 13:26:21;;;;;;;1.40;1.20;;;22.70;75.90;;;;;;6211990;28;89048;-72
2023/01/18 13:29:28;;;;;;;2.28;1.30;;;22.60;75.80;;;;;;6225851;28;87771;-72
2023/01/18 13:32:33;;;;;;;1.33;1.23;;;22.70;75.90;;;;;;6224055;28;89181;-72
2023/01/18 13:35:37;;;;;;;1.45;1.35;;;22.70;75.90;;;;;;6230460;28;89040;-72
2023/01/18 13:38:49;;;;;;;1.30;1.20;;;22.70;75.90;;;;;;6230568;28;89870;-73
2023/01/18 13:42:24;;;;;;;1.50;1.40;;;22.70;75.90;;;;;;6230330;28;89060;-72
2023/01/18 13:45:28;;;;;;;1.50;1.40;;;22.70;75.80;;;;;;6222303;28;89123;-72
2023/01/18 13:48:46;;;;;;;2.28;1.70;;;22.70;75.80;;;;;;6215941;28;88991;-72
2023/01/18 13:51:56;;;;;;;1.40;1.30;;;22.70;75.80;;;;;;6218565;28;89186;-72
2023/01/18 13:55:02;;;;;;;1.30;1.20;;;22.70;75.70;;;;;;6226098;28;89425;-72
2023/01/18 13:58:04;;;;;;;1.27;1.17;;;22.70;75.70;;;;;;6229492;28;89072;-72
2023/01/18 14:01:18;;;;;;;1.30;1.20;;;22.70;75.70;;;;;;6230314;28;88414;-71
2023/01/18 14:04:29;;;;;;;1.27;1.17;;;22.70;75.70;;;;;;6227658;28;89455;-72
2023/01/18 14:07:40;;;;;;;1.23;1.13;;;22.70;75.70;;;;;;6208458;28;89140;-72
2023/01/18 14:10:48;;;;;;;1.90;1.40;;;22.70;75.70;;;;;;6228701;28;89731;-73
2023/01/18 14:14:03;;;;;;;1.33;1.23;;;22.70;75.70;;;;;;6228207;28;89241;-72
2023/01/18 14:17:12;;;;;;;1.23;1.10;;;22.70;75.70;;;;;;6230235;28;89722;-72
2023/01/18 14:20:43;;;;;;;1.52;1.42;;;22.70;75.70;;;;;;6219319;28;89101;-72
2023/01/18 14:24:10;;;;;;;1.20;1.10;;;22.70;75.60;;;;;;6207255;28;88267;-72
2023/01/18 14:27:19;;;;;;;1.20;1.10;;;22.70;75.70;;;;;;6206739;28;89581;-71
2023/01/18 14:30:26;;;;;;;1.25;1.15;;;22.70;75.70;;;;;;6232999;28;88172;-73
2023/01/18 14:33:32;;;;;;;1.23;1.13;;;22.70;75.70;;;;;;6234369;28;88498;-73
2023/01/18 14:36:36;;;;;;;1.20;1.10;;;22.70;75.70;;;;;;6233343;28;87909;-71
2023/01/18 14:39:39;;;;;;;1.23;1.13;;;22.70;75.70;;;;;;6225570;28;90340;-72
2023/01/18 14:42:47;;;;;;;1.17;1.08;;;22.70;75.70;;;;;;6222200;28;90030;-72
2023/01/18 14:45:56;;;;;;;1.98;1.20;;;22.70;75.70;;;;;;6214736;28;89207;-72
2023/01/18 14:49:00;;;;;;;1.25;1.15;;;22.70;75.70;;;;;;6220810;28;87929;-73
2023/01/18 14:52:03;;;;;;;1.45;1.30;;;22.70;75.70;;;;;;6224171;28;89001;-72
2023/01/18 14:55:23;;;;;;;1.58;1.10;;;22.70;75.70;;;;;;6229846;28;89214;-73
2023/01/18 14:58:27;;;;;;;1.58;1.40;;;22.70;75.70;;;;;;6222176;28;89075;-73
2023/01/18 15:01:32;;;;;;;1.30;1.20;;;22.70;75.60;;;;;;6222781;28;89050;-72
2023/01/18 15:04:37;;;;;;;1.15;1.05;;;22.70;75.60;;;;;;6218754;28;88358;-72
2023/01/18 15:07:40;;;;;;;1.20;1.10;;;22.70;75.60;;;;;;6212235;28;89241;-72
2023/01/18 15:10:45;;;;;;;1.20;1.10;;;22.70;75.50;;;;;;6229106;28;89047;-73
2023/01/18 15:13:51;;;;;;;1.10;1.00;;;22.70;75.60;;;;;;6226980;28;89843;-73
2023/01/18 15:16:57;;;;;;;1.33;1.23;;;22.80;75.60;;;;;;6231973;28;89073;-72
2023/01/18 15:20:05;;;;;;;1.20;1.10;;;22.80;75.60;;;;;;6220487;28;89957;-73
2023/01/18 15:23:07;;;;;;;1.27;1.17;;;22.70;75.50;;;;;;6225370;28;89104;-72
2023/01/18 15:26:10;;;;;;;1.42;1.33;;;22.70;75.60;;;;;;6214314;28;89043;-72
2023/01/18 15:29:15;;;;;;;1.30;1.20;;;22.70;75.60;;;;;;6220771;28;89139;-72
2023/01/18 15:32:21;;;;;;;1.20;1.10;;;22.70;75.50;;;;;;6232967;28;89378;-73
2023/01/18 15:35:25;;;;;;;1.17;1.00;;;22.80;75.50;;;;;;6228700;28;87302;-72
2023/01/18 15:38:27;;;;;;;1.27;1.17;;;22.70;75.50;;;;;;6220838;28;87909;-73
2023/01/18 15:41:33;;;;;;;1.10;1.00;;;22.70;75.50;;;;;;6221124;28;89470;-73
2023/01/18 15:44:47;;;;;;;1.30;1.20;;;22.70;75.40;;;;;;6231973;28;88953;-72
2023/01/18 15:47:52;;;;;;;1.15;1.05;;;22.80;75.50;;;;;;6232642;28;89009;-72
2023/01/18 15:50:56;;;;;;;1.30;1.20;;;22.70;75.50;;;;;;6230379;28;89339;-73
2023/01/18 15:53:58;;;;;;;1.20;1.10;;;22.80;75.50;;;;;;6228786;28;87893;-73
2023/01/18 15:57:12;;;;;;;1.23;1.13;;;22.70;75.40;;;;;;6230253;28;89168;-72
2023/01/18 16:00:39;;;;;;;1.30;1.20;;;22.70;75.40;;;;;;6226105;28;89127;-72
2023/01/18 16:03:54;;;;;;;1.17;1.02;;;22.70;75.40;;;;;;6217648;28;88038;-74
2023/01/18 16:06:56;;;;;;;1.23;1.13;;;22.70;75.40;;;;;;6232304;28;88374;-73
2023/01/18 16:10:26;;;;;;;1.30;0.98;;;22.70;75.40;;;;;;6231990;28;89121;-72
2023/01/18 16:13:35;;;;;;;0.95;0.95;;;22.80;75.40;;;;;;6220042;28;89169;-71
2023/01/18 16:16:39;;;;;;;1.08;0.98;;;22.80;75.40;;;;;;6227920;28;89923;-72
2023/01/18 16:19:43;;;;;;;1.30;1.20;;;22.70;75.40;;;;;;6210621;28;88852;-72
2023/01/18 16:22:47;;;;;;;1.10;1.00;;;22.80;75.50;;;;;;6217338;28;88296;-72
2023/01/18 16:25:51;;;;;;;1.10;1.00;;;22.80;75.40;;;;;;6230684;28;88926;-72
2023/01/18 16:29:05;;;;;;;1.10;1.00;;;22.70;75.40;;;;;;6226901;28;89035;-72
2023/01/18 16:32:31;;;;;;;1.40;1.20;;;22.80;75.40;;;;;;6222011;28;89172;-74
2023/01/18 16:35:34;;;;;;;1.30;1.20;;;22.80;75.40;;;;;;6228350;28;88983;-72
2023/01/18 16:38:37;;;;;;;1.20;1.10;;;22.80;75.40;;;;;;6232996;28;88539;-72
2023/01/18 16:41:41;;;;;;;1.10;1.00;;;22.80;75.40;;;;;;6208122;28;90953;-72
2023/01/18 16:44:47;;;;;;;1.30;1.20;;;22.80;75.40;;;;;;6218416;28;88008;-72
2023/01/18 16:47:49;;;;;;;1.40;1.20;;;22.70;75.30;;;;;;6231187;28;90015;-72
2023/01/18 16:50:54;;;;;;;1.00;0.90;;;22.80;75.40;;;;;;6218596;28;89146;-73